Time;durP1;ratioP1;P1;durP2;ratioP2;P2;SDS_P1;SDS_P2;PMS_P1;PMS_P2;Temp;Humidity;BMP_temperature;BMP_pressure;BME280_temperature;BME280_humidity;BME280_pressure;Samples;Min_cycle;Max_cycle;Signal;HPM_P1;HPM_P2
2021/07/15 00:01:22;;;;;;;;;;;;;;;20.81;73.33;101036.28;5014705;28;866;-69
2021/07/15 00:03:47;;;;;;;;;;;;;;;20.81;73.36;101033.56;5015019;28;1001;-69
2021/07/15 00:06:12;;;;;;;;;;;;;;;20.84;72.92;101037.81;5018366;28;950;-69
2021/07/15 00:08:37;;;;;;;;;;;;;;;20.81;73.08;101044.41;5018621;28;1910;-69
2021/07/15 00:11:02;;;;;;;;;;;;;;;20.79;72.80;101047.28;5018721;28;870;-69
2021/07/15 00:13:27;;;;;;;;;;;;;;;20.80;73.16;101042.69;5018876;28;1002;-69
2021/07/15 00:15:52;;;;;;;;;;;;;;;20.75;73.01;101039.66;5018210;28;1033;-69
2021/07/15 00:18:18;;;;;;;;;;;;;;;20.76;73.15;101033.22;5018730;28;812;-69
2021/07/15 00:20:43;;;;;;;;;;;;;;;20.82;73.05;101029.84;5018568;28;1022;-70
2021/07/15 00:23:08;;;;;;;;;;;;;;;20.82;73.11;101032.56;5018597;28;974;-69
2021/07/15 00:25:33;;;;;;;;;;;;;;;20.80;72.61;101034.56;5018498;28;922;-70
2021/07/15 00:27:58;;;;;;;;;;;;;;;20.75;73.65;101034.22;5018655;28;981;-70
2021/07/15 00:30:23;;;;;;;;;;;;;;;20.82;73.45;101029.84;5018147;28;1890;-69
2021/07/15 00:32:48;;;;;;;;;;;;;;;20.80;73.44;101040.00;5050259;28;1233;-69
2021/07/15 00:35:13;;;;;;;;;;;;;;;20.80;73.29;101031.88;5018351;28;709;-69
2021/07/15 00:37:39;;;;;;;;;;;;;;;20.76;73.47;101052.19;5018184;28;961;-69
2021/07/15 00:40:04;;;;;;;;;;;;;;;20.79;73.03;101032.88;5018035;28;768;-69
2021/07/15 00:42:29;;;;;;;;;;;;;;;20.75;73.40;101040.50;5017903;28;812;-70
2021/07/15 00:44:54;;;;;;;;;;;;;;;20.71;73.21;101036.41;5018023;28;1005;-69
2021/07/15 00:47:19;;;;;;;;;;;;;;;20.68;73.22;101042.13;5017901;28;942;-69
2021/07/15 00:49:44;;;;;;;;;;;;;;;20.74;73.33;101043.38;5017942;28;1947;-70
2021/07/15 00:52:12;;;;;;;;;;;;;;;20.72;73.79;101045.38;5018049;28;898;-70
2021/07/15 00:54:37;;;;;;;;;;;;;;;20.71;73.58;101039.13;5017946;28;1189;-70
2021/07/15 00:57:02;;;;;;;;;;;;;;;20.65;73.30;101038.91;5018099;28;843;-69
2021/07/15 00:59:27;;;;;;;;;;;;;;;20.64;73.76;101056.16;5017765;28;867;-69
2021/07/15 01:01:52;;;;;;;;;;;;;;;20.64;73.67;101042.59;5017892;28;997;-69
2021/07/15 01:04:17;;;;;;;;;;;;;;;20.71;72.70;101054.50;5017569;28;1004;-69
2021/07/15 01:06:42;;;;;;;;;;;;;;;20.67;73.51;101061.25;5017792;28;1025;-69
2021/07/15 01:09:07;;;;;;;;;;;;;;;20.67;73.64;101055.84;5017700;28;1907;-69
2021/07/15 01:11:32;;;;;;;;;;;;;;;20.68;73.27;101049.41;5017441;28;874;-70
2021/07/15 01:13:57;;;;;;;;;;;;;;;20.65;74.05;101050.56;5017824;28;1002;-69
2021/07/15 01:16:22;;;;;;;;;;;;;;;20.66;73.69;101054.97;5016978;28;914;-69
2021/07/15 01:18:47;;;;;;;;;;;;;;;20.63;73.38;101062.56;5049251;28;1231;-69
2021/07/15 01:21:13;;;;;;;;;;;;;;;20.62;73.87;101058.16;5017307;28;1108;-70
2021/07/15 01:23:38;;;;;;;;;;;;;;;20.64;73.72;101058.84;5017433;28;985;-69
2021/07/15 01:26:03;;;;;;;;;;;;;;;20.66;73.71;101060.41;5017305;28;820;-69
2021/07/15 01:28:28;;;;;;;;;;;;;;;20.58;73.50;101054.09;5017274;28;1973;-69
2021/07/15 01:30:53;;;;;;;;;;;;;;;20.66;73.76;101051.44;5017139;28;874;-68
2021/07/15 01:33:18;;;;;;;;;;;;;;;20.65;72.96;101055.13;5017338;28;784;-69
2021/07/15 01:35:43;;;;;;;;;;;;;;;20.64;73.62;101048.88;5017225;28;820;-69
2021/07/15 01:38:08;;;;;;;;;;;;;;;20.62;73.65;101052.75;5017020;28;832;-68
2021/07/15 01:40:34;;;;;;;;;;;;;;;20.65;72.95;101049.72;5048749;28;1224;-68
2021/07/15 01:42:59;;;;;;;;;;;;;;;20.69;72.65;101040.28;5016844;28;1153;-68
2021/07/15 01:45:24;;;;;;;;;;;;;;;20.67;73.17;101045.84;5049109;28;1402;-68
2021/07/15 01:47:49;;;;;;;;;;;;;;;20.64;73.52;101061.56;5016964;28;910;-68
2021/07/15 01:50:14;;;;;;;;;;;;;;;20.62;72.98;101052.75;5016862;28;2330;-69
2021/07/15 01:52:39;;;;;;;;;;;;;;;20.63;73.00;101051.75;5016796;28;823;-68
2021/07/15 01:55:04;;;;;;;;;;;;;;;20.61;72.73;101037.50;5016734;28;1196;-69
2021/07/15 01:57:29;;;;;;;;;;;;;;;20.59;73.56;101050.38;5017115;28;1068;-69
2021/07/15 01:59:54;;;;;;;;;;;;;;;20.60;73.47;101046.66;5016656;28;965;-69
2021/07/15 02:02:19;;;;;;;;;;;;;;;20.58;73.71;101054.94;5016438;28;989;-69
2021/07/15 02:04:44;;;;;;;;;;;;;;;20.54;73.42;101041.88;5016345;28;792;-70
2021/07/15 02:07:10;;;;;;;;;;;;;;;20.57;73.66;101042.41;5016403;28;1057;-70
2021/07/15 02:09:35;;;;;;;;;;;;;;;20.59;72.89;101047.69;5016369;28;1954;-69
2021/07/15 02:12:00;;;;;;;;;;;;;;;20.59;73.58;101039.56;5016429;28;811;-70
2021/07/15 02:14:25;;;;;;;;;;;;;;;20.51;73.04;101043.03;5016589;28;1002;-69
2021/07/15 02:16:50;;;;;;;;;;;;;;;20.51;73.05;101034.91;5016105;28;1010;-69
2021/07/15 02:19:15;;;;;;;;;;;;;;;20.52;73.19;101033.06;5016041;28;922;-70
2021/07/15 02:21:40;;;;;;;;;;;;;;;20.55;72.70;101043.59;5048136;28;1181;-70
2021/07/15 02:24:05;;;;;;;;;;;;;;;20.56;73.00;101048.00;5048090;28;2414;-69
2021/07/15 02:26:30;;;;;;;;;;;;;;;20.51;72.97;101044.91;5016498;28;1010;-69
2021/07/15 02:28:55;;;;;;;;;;;;;;;20.57;73.34;101044.28;5015456;28;1890;-69
2021/07/15 02:31:20;;;;;;;;;;;;;;;20.52;73.65;101038.47;5016261;28;848;-69
2021/07/15 02:33:46;;;;;;;;;;;;;;;20.54;72.99;101033.75;5016283;28;958;-69
2021/07/15 02:36:11;;;;;;;;;;;;;;;20.50;73.23;101037.78;5016082;28;792;-69
2021/07/15 02:38:36;;;;;;;;;;;;;;;20.45;73.26;101039.09;5015853;28;807;-69
2021/07/15 02:41:01;;;;;;;;;;;;;;;20.44;73.86;101032.00;5015955;28;1018;-69
2021/07/15 02:43:26;;;;;;;;;;;;;;;20.48;73.75;101031.69;5015785;28;1020;-69
2021/07/15 02:45:52;;;;;;;;;;;;;;;20.47;73.64;101035.38;5016226;28;953;-69
2021/07/15 02:48:17;;;;;;;;;;;;;;;20.48;72.91;101039.81;5015931;28;798;-69
2021/07/15 02:50:42;;;;;;;;;;;;;;;20.47;73.52;101029.97;5015732;28;1941;-69
2021/07/15 02:53:07;;;;;;;;;;;;;;;20.49;72.83;101027.97;5046964;28;1314;-69
2021/07/15 02:55:32;;;;;;;;;;;;;;;20.50;73.59;101043.19;5015498;28;1510;-69
2021/07/15 02:57:57;;;;;;;;;;;;;;;20.43;72.89;101040.28;5015976;28;1037;-70
2021/07/15 03:00:22;;;;;;;;;;;;;;;20.43;73.43;101024.88;5015677;28;1002;-70
2021/07/15 03:02:47;;;;;;;;;;;;;;;20.45;73.62;101030.97;5015453;28;973;-70
2021/07/15 03:05:12;;;;;;;;;;;;;;;20.39;73.56;101034.34;5047268;28;700;-70
2021/07/15 03:07:38;;;;;;;;;;;;;;;20.34;73.52;101036.63;5015433;28;1010;-69
2021/07/15 03:10:03;;;;;;;;;;;;;;;20.41;73.64;101042.31;5015595;28;1977;-69
2021/07/15 03:12:28;;;;;;;;;;;;;;;20.43;73.10;101041.13;5047211;28;1458;-70
2021/07/15 03:14:53;;;;;;;;;;;;;;;20.43;73.38;101049.25;5015390;28;1010;-70
2021/07/15 03:17:19;;;;;;;;;;;;;;;20.46;72.85;101045.38;5015348;28;886;-70
2021/07/15 03:19:44;;;;;;;;;;;;;;;20.44;73.07;101048.22;5047109;28;1630;-69
2021/07/15 03:22:09;;;;;;;;;;;;;;;20.43;72.87;101043.81;5015558;28;1001;-69
2021/07/15 03:24:34;;;;;;;;;;;;;;;20.41;73.17;101037.75;5015222;28;823;-69
2021/07/15 03:27:02;;;;;;;;;;;;;;;20.39;73.43;101034.34;5015423;28;937;-69
2021/07/15 03:29:27;;;;;;;;;;;;;;;20.40;73.55;101033.34;5015185;28;1894;-69
2021/07/15 03:31:52;;;;;;;;;;;;;;;20.38;73.77;101037.22;5047018;28;827;-69
2021/07/15 03:34:17;;;;;;;;;;;;;;;20.39;73.32;101037.06;5015144;28;993;-69
2021/07/15 03:36:48;;;;;;;;;;;;;;;20.37;73.06;101036.34;5015466;28;1061;-69
2021/07/15 03:39:13;;;;;;;;;;;;;;;20.42;73.25;101028.59;5014391;28;815;-69
2021/07/15 03:41:38;;;;;;;;;;;;;;;20.44;72.90;101028.44;5015167;28;1005;-69
2021/07/15 03:44:03;;;;;;;;;;;;;;;20.35;73.78;101042.91;5046763;28;840;-69
2021/07/15 03:46:28;;;;;;;;;;;;;;;20.22;73.79;101046.03;5015045;28;998;-69
2021/07/15 03:48:53;;;;;;;;;;;;;;;20.28;74.22;101021.03;5015359;28;1959;-70
2021/07/15 03:51:18;;;;;;;;;;;;;;;20.36;73.41;101029.25;5047020;28;930;-69
2021/07/15 03:53:43;;;;;;;;;;;;;;;20.40;73.06;101030.63;5046633;28;1611;-70
2021/07/15 03:56:09;;;;;;;;;;;;;;;20.37;73.38;101027.38;5014880;28;1018;-70
2021/07/15 03:58:34;;;;;;;;;;;;;;;20.20;74.00;101039.91;5014975;28;970;-70
2021/07/15 04:00:59;;;;;;;;;;;;;;;20.21;74.18;101048.88;5014697;28;866;-70
2021/07/15 04:03:24;;;;;;;;;;;;;;;20.27;73.88;101062.63;5014830;28;1061;-70
2021/07/15 04:05:49;;;;;;;;;;;;;;;20.34;73.32;101063.69;5015036;28;974;-70
2021/07/15 04:08:14;;;;;;;;;;;;;;;20.34;73.58;101054.72;5014686;28;855;-69
2021/07/15 04:10:39;;;;;;;;;;;;;;;20.31;73.33;101066.72;5014768;28;1906;-69
2021/07/15 04:13:04;;;;;;;;;;;;;;;20.31;73.98;101074.84;5014825;28;923;-70
2021/07/15 04:15:29;;;;;;;;;;;;;;;20.33;74.06;101061.16;5014568;28;917;-69
2021/07/15 04:17:54;;;;;;;;;;;;;;;20.33;73.20;101071.97;5014832;28;823;-69
2021/07/15 04:20:19;;;;;;;;;;;;;;;20.27;73.78;101068.03;5014652;28;823;-69
2021/07/15 04:22:45;;;;;;;;;;;;;;;20.27;73.79;101086.13;5014815;28;812;-69
2021/07/15 04:25:10;;;;;;;;;;;;;;;20.23;73.19;101074.78;5015081;28;804;-69
2021/07/15 04:27:35;;;;;;;;;;;;;;;20.29;73.73;101082.25;5046518;28;1488;-69
2021/07/15 04:30:00;;;;;;;;;;;;;;;20.26;73.85;101093.41;5014585;28;1945;-70
2021/07/15 04:32:26;;;;;;;;;;;;;;;20.29;73.36;101090.38;5013961;28;1446;-69
2021/07/15 04:34:51;;;;;;;;;;;;;;;20.29;73.72;101094.94;5014538;28;1392;-70
2021/07/15 04:37:16;;;;;;;;;;;;;;;20.27;73.65;101084.28;5014075;28;1331;-70
2021/07/15 04:39:41;;;;;;;;;;;;;;;20.27;73.20;101084.28;5014030;28;1387;-69
2021/07/15 04:42:06;;;;;;;;;;;;;;;20.30;74.14;101083.13;5013662;28;1339;-69
2021/07/15 04:44:32;;;;;;;;;;;;;;;20.27;73.73;101086.13;5012867;28;1426;-69
2021/07/15 04:46:57;;;;;;;;;;;;;;;20.29;73.09;101090.38;5013906;28;1484;-70
2021/07/15 04:49:22;;;;;;;;;;;;;;;20.30;73.21;101094.78;5014960;28;1957;-71
2021/07/15 04:51:47;;;;;;;;;;;;;;;20.27;73.24;101099.66;5017016;28;966;-71
2021/07/15 04:54:12;;;;;;;;;;;;;;;20.25;73.27;101093.56;5033754;28;1245;-72
2021/07/15 04:56:37;;;;;;;;;;;;;;;20.19;73.90;101105.03;5033134;28;1629;-68
2021/07/15 04:59:02;;;;;;;;;;;;;;;20.25;74.63;101112.50;5018361;28;1006;-68
2021/07/15 05:01:27;;;;;;;;;;;;;;;20.32;75.41;101111.72;5018372;28;851;-68
2021/07/15 05:03:52;;;;;;;;;;;;;;;20.33;74.99;101093.63;5018752;28;1629;-68
2021/07/15 05:06:19;;;;;;;;;;;;;;;20.36;75.99;101105.03;5018310;28;1026;-68
2021/07/15 05:08:44;;;;;;;;;;;;;;;20.38;75.28;101108.44;5017864;28;1891;-67
2021/07/15 05:11:09;;;;;;;;;;;;;;;20.39;75.22;101112.84;5017591;28;1573;-68
2021/07/15 05:13:34;;;;;;;;;;;;;;;20.30;75.40;101105.63;5017360;28;1628;-67
2021/07/15 05:15:59;;;;;;;;;;;;;;;20.34;75.02;101101.59;5016868;28;1341;-68
2021/07/15 05:18:24;;;;;;;;;;;;;;;20.32;74.46;101108.16;5017945;28;938;-68
2021/07/15 05:20:49;;;;;;;;;;;;;;;20.34;74.36;101107.00;5016248;28;1781;-68
2021/07/15 05:23:14;;;;;;;;;;;;;;;20.28;74.22;101112.19;5017332;28;1336;-68
2021/07/15 05:25:39;;;;;;;;;;;;;;;20.27;74.33;101105.94;5032052;28;1268;-68
2021/07/15 05:28:04;;;;;;;;;;;;;;;20.34;74.40;101111.56;5016473;28;1410;-68
2021/07/15 05:30:30;;;;;;;;;;;;;;;20.30;74.40;101115.59;5016661;28;1948;-67
2021/07/15 05:32:55;;;;;;;;;;;;;;;20.32;74.24;101114.44;5016243;28;1452;-69
2021/07/15 05:35:20;;;;;;;;;;;;;;;20.30;74.23;101113.75;5016664;28;1269;-68
2021/07/15 05:37:45;;;;;;;;;;;;;;;20.22;74.21;101105.56;5016590;28;1494;-68
2021/07/15 05:40:10;;;;;;;;;;;;;;;20.24;74.12;101114.38;5016738;28;1347;-67
2021/07/15 05:42:35;;;;;;;;;;;;;;;20.19;74.24;101119.41;5016619;28;1359;-67
2021/07/15 05:45:00;;;;;;;;;;;;;;;20.23;74.38;101131.63;5016554;28;1367;-67
2021/07/15 05:47:25;;;;;;;;;;;;;;;20.28;74.26;101125.72;5016431;28;1217;-67
2021/07/15 05:49:50;;;;;;;;;;;;;;;20.28;74.04;101131.13;5048295;28;1955;-67
2021/07/15 05:52:15;;;;;;;;;;;;;;;20.24;73.94;101130.63;5016126;28;1327;-67
2021/07/15 05:54:40;;;;;;;;;;;;;;;20.20;73.92;101136.50;5016438;28;1520;-67
2021/07/15 05:57:06;;;;;;;;;;;;;;;20.17;73.17;101139.50;5016698;28;1439;-67
2021/07/15 05:59:32;;;;;;;;;;;;;;;20.25;73.34;101150.38;5016791;28;854;-67
2021/07/15 06:01:57;;;;;;;;;;;;;;;20.23;73.64;101142.44;5016045;28;827;-67
2021/07/15 06:04:22;;;;;;;;;;;;;;;20.29;73.36;101141.81;5016444;28;887;-66
2021/07/15 06:06:47;;;;;;;;;;;;;;;20.12;74.20;101139.97;5016928;28;1069;-66
2021/07/15 06:09:12;;;;;;;;;;;;;;;20.21;73.79;101144.47;5017098;28;1970;-67
2021/07/15 06:11:37;;;;;;;;;;;;;;;20.17;73.50;101151.19;5016354;28;2070;-68
2021/07/15 06:14:02;;;;;;;;;;;;;;;20.16;73.85;101145.91;5015962;28;1248;-67
2021/07/15 06:16:28;;;;;;;;;;;;;;;20.23;73.34;101150.56;5016172;28;1450;-67
2021/07/15 06:18:53;;;;;;;;;;;;;;;20.22;73.69;101161.53;5016016;28;1662;-67
2021/07/15 06:21:18;;;;;;;;;;;;;;;20.19;73.79;101156.44;5015864;28;1423;-68
2021/07/15 06:23:43;;;;;;;;;;;;;;;20.19;73.49;101154.59;5016260;28;1796;-66
2021/07/15 06:26:08;;;;;;;;;;;;;;;20.18;73.66;101157.44;5014329;28;1361;-67
2021/07/15 06:28:33;;;;;;;;;;;;;;;20.13;73.52;101157.88;5015830;28;1894;-67
2021/07/15 06:30:58;;;;;;;;;;;;;;;20.19;73.38;101157.28;5015900;28;1496;-67
2021/07/15 06:33:23;;;;;;;;;;;;;;;20.13;73.15;101162.44;5014864;28;1013;-67
2021/07/15 06:35:50;;;;;;;;;;;;;;;20.11;73.31;101165.31;5016517;28;906;-67
2021/07/15 06:38:15;;;;;;;;;;;;;;;20.17;73.66;101164.72;5016046;28;1447;-67
2021/07/15 06:40:40;;;;;;;;;;;;;;;20.19;73.91;101167.25;5019097;28;1373;-67
2021/07/15 06:43:05;;;;;;;;;;;;;;;20.13;73.54;101159.75;5028746;28;1275;-67
2021/07/15 06:45:31;;;;;;;;;;;;;;;20.19;72.87;101180.78;5029624;28;1539;-67
2021/07/15 06:47:56;;;;;;;;;;;;;;;20.15;73.43;101169.41;5025605;28;1278;-67
2021/07/15 06:50:21;;;;;;;;;;;;;;;20.16;73.45;101178.38;5028886;28;1918;-67
2021/07/15 06:52:46;;;;;;;;;;;;;;;20.13;72.70;101179.53;5018833;28;1298;-70
2021/07/15 06:55:11;;;;;;;;;;;;;;;20.14;73.74;101180.38;5031480;28;1425;-70
2021/07/15 06:57:36;;;;;;;;;;;;;;;20.06;74.05;101178.47;5022516;28;1305;-70
2021/07/15 07:00:01;;;;;;;;;;;;;;;20.10;73.41;101187.97;5024463;28;1253;-70
2021/07/15 07:02:26;;;;;;;;;;;;;;;20.13;73.48;101184.09;5021259;28;1748;-70
2021/07/15 07:04:52;;;;;;;;;;;;;;;20.18;73.32;101179.09;5025732;28;1353;-70
2021/07/15 07:07:17;;;;;;;;;;;;;;;20.16;73.12;101190.06;5031755;28;1492;-70
2021/07/15 07:09:42;;;;;;;;;;;;;;;20.21;72.74;101185.06;5030311;28;1910;-70
2021/07/15 07:12:07;;;;;;;;;;;;;;;20.17;73.55;101194.47;5029086;28;1491;-72
2021/07/15 07:14:32;;;;;;;;;;;;;;;20.18;73.86;101193.47;5024189;28;1493;-70
2021/07/15 07:16:57;;;;;;;;;;;;;;;20.14;73.53;101208.31;5025690;28;1385;-69
2021/07/15 07:19:22;;;;;;;;;;;;;;;20.16;72.78;101208.16;5018555;28;1436;-67
2021/07/15 07:21:47;;;;;;;;;;;;;;;20.23;73.23;101204.69;5026064;28;1069;-68
2021/07/15 07:24:12;;;;;;;;;;;;;;;20.21;72.67;101214.81;5031195;28;1329;-67
2021/07/15 07:26:37;;;;;;;;;;;;;;;20.19;73.45;101211.41;5049908;28;1258;-67
2021/07/15 07:29:03;;;;;;;;;;;;;;;20.04;72.90;101219.19;5035076;28;1955;-67
2021/07/15 07:31:28;;;;;;;;;;;;;;;20.11;73.83;101216.72;5024768;28;1563;-67
2021/07/15 07:33:53;;;;;;;;;;;;;;;20.14;73.19;101218.28;5015226;28;845;-67
2021/07/15 07:36:18;;;;;;;;;;;;;;;20.15;73.69;101223.53;5014579;28;1642;-67
2021/07/15 07:38:43;;;;;;;;;;;;;;;20.18;73.86;101225.09;5014630;28;1709;-67
2021/07/15 07:41:08;;;;;;;;;;;;;;;20.18;73.28;101227.81;5046248;28;1296;-67
2021/07/15 07:43:33;;;;;;;;;;;;;;;20.14;72.76;101229.09;5012898;28;1677;-67
2021/07/15 07:46:00;;;;;;;;;;;;;;;20.16;72.71;101227.09;5015265;28;838;-67
2021/07/15 07:48:26;;;;;;;;;;;;;;;20.15;73.28;101237.06;5015249;28;841;-67
2021/07/15 07:50:51;;;;;;;;;;;;;;;20.09;73.26;101238.53;5030566;28;1961;-67
2021/07/15 07:53:16;;;;;;;;;;;;;;;20.08;73.46;101233.25;5014735;28;1396;-67
2021/07/15 07:55:43;;;;;;;;;;;;;;;20.12;73.27;101234.66;5015117;28;1177;-67
2021/07/15 07:58:08;;;;;;;;;;;;;;;19.96;73.30;101243.44;5015149;28;1698;-67
2021/07/15 08:00:33;;;;;;;;;;;;;;;19.97;72.80;101242.44;5014487;28;1482;-67
2021/07/15 08:02:58;;;;;;;;;;;;;;;20.01;73.07;101240.28;5014772;28;1636;-67
2021/07/15 08:05:24;;;;;;;;;;;;;;;20.05;72.66;101247.13;5014590;28;1628;-67
2021/07/15 08:07:50;;;;;;;;;;;;;;;20.05;72.76;101245.25;5014491;28;1617;-67
2021/07/15 08:10:15;;;;;;;;;;;;;;;20.08;73.04;101246.78;5014060;28;1910;-67
2021/07/15 08:12:40;;;;;;;;;;;;;;;20.03;73.32;101241.00;5014233;28;1312;-67
2021/07/15 08:15:05;;;;;;;;;;;;;;;20.04;73.12;101256.22;5029435;28;1316;-67
2021/07/15 08:17:30;;;;;;;;;;;;;;;20.09;72.75;101246.63;5014273;28;1392;-68
2021/07/15 08:19:55;;;;;;;;;;;;;;;20.04;72.45;101253.53;5014161;28;1213;-67
2021/07/15 08:22:20;;;;;;;;;;;;;;;20.03;72.20;101249.97;5014301;28;1344;-67
2021/07/15 08:24:45;;;;;;;;;;;;;;;19.97;72.79;101255.13;5014474;28;1049;-68
2021/07/15 08:27:10;;;;;;;;;;;;;;;19.97;72.43;101252.41;5017855;28;942;-67
2021/07/15 08:29:36;;;;;;;;;;;;;;;19.96;72.65;101256.97;5049428;28;1955;-70
2021/07/15 08:32:01;;;;;;;;;;;;;;;20.00;72.42;101260.22;5046839;28;1224;-70
2021/07/15 08:34:26;;;;;;;;;;;;;;;19.98;73.20;101256.81;5017773;28;1125;-70
2021/07/15 08:36:51;;;;;;;;;;;;;;;19.91;73.21;101277.34;5050189;28;1375;-70
2021/07/15 08:39:16;;;;;;;;;;;;;;;19.91;73.34;101274.63;5018162;28;1483;-69
2021/07/15 08:41:43;;;;;;;;;;;;;;;19.93;73.49;101280.75;5017792;28;1406;-69
2021/07/15 08:44:08;;;;;;;;;;;;;;;19.90;72.86;101276.50;5017815;28;1438;-69
2021/07/15 08:46:33;;;;;;;;;;;;;;;19.94;72.27;101283.31;5018491;28;918;-69
2021/07/15 08:48:58;;;;;;;;;;;;;;;19.97;73.01;101277.63;5018023;28;1991;-69
2021/07/15 08:51:23;;;;;;;;;;;;;;;20.04;72.94;101286.00;5018115;28;1048;-69
2021/07/15 08:53:48;;;;;;;;;;;;;;;20.01;72.74;101283.59;5017907;28;1527;-70
2021/07/15 08:58:57;;;;;;;;;;;;;;;20.01;73.07;101306.06;5015146;28;1261;-70
2021/07/15 09:01:22;;;;;;;;;;;;;;;20.04;73.27;101303.06;5017502;28;1430;-70
2021/07/15 09:03:47;;;;;;;;;;;;;;;20.08;72.38;101303.59;5017713;28;807;-70
2021/07/15 09:06:13;;;;;;;;;;;;;;;20.09;72.93;101310.72;5032719;28;1335;-70
2021/07/15 09:08:38;;;;;;;;;;;;;;;19.99;72.88;101318.03;5033061;28;1995;-70
2021/07/15 09:11:03;;;;;;;;;;;;;;;20.03;73.07;101314.06;5017989;28;994;-70
2021/07/15 09:13:28;;;;;;;;;;;;;;;19.98;72.57;101313.63;5033212;28;1243;-68
2021/07/15 09:15:53;;;;;;;;;;;;;;;20.02;72.87;101312.34;5017968;28;1065;-69
2021/07/15 09:18:18;;;;;;;;;;;;;;;19.99;72.84;101318.91;5017978;28;945;-69
2021/07/15 09:20:43;;;;;;;;;;;;;;;19.98;73.32;101316.34;5032773;28;1236;-70
2021/07/15 09:23:08;;;;;;;;;;;;;;;19.97;72.96;101320.03;5017313;28;867;-69
2021/07/15 09:25:33;;;;;;;;;;;;;;;19.97;73.41;101326.31;5032574;28;1183;-70
2021/07/15 09:27:58;;;;;;;;;;;;;;;19.98;72.84;101330.72;5017584;28;966;-70
2021/07/15 09:30:24;;;;;;;;;;;;;;;19.92;72.89;101325.91;5017271;28;1969;-70
2021/07/15 09:32:49;;;;;;;;;;;;;;;19.91;72.55;101324.19;5032416;28;1664;-70
2021/07/15 09:35:14;;;;;;;;;;;;;;;19.95;72.59;101322.03;5017697;28;977;-70
2021/07/15 09:37:39;;;;;;;;;;;;;;;19.96;72.52;101326.44;5017212;28;792;-70
2021/07/15 09:40:04;;;;;;;;;;;;;;;19.95;72.98;101332.88;5017360;28;1045;-70
2021/07/15 09:42:29;;;;;;;;;;;;;;;19.97;72.76;101326.31;5017761;28;902;-69
2021/07/15 09:44:54;;;;;;;;;;;;;;;19.97;72.65;101341.69;5017043;28;974;-70
2021/07/15 09:47:19;;;;;;;;;;;;;;;19.96;72.65;101331.88;5017328;28;788;-70
2021/07/15 09:49:45;;;;;;;;;;;;;;;19.96;72.46;101334.56;5016989;28;1961;-70
2021/07/15 09:52:10;;;;;;;;;;;;;;;19.91;72.88;101336.84;5016974;28;950;-70
2021/07/15 09:54:35;;;;;;;;;;;;;;;19.93;73.17;101337.56;5016755;28;1185;-70
2021/07/15 09:57:00;;;;;;;;;;;;;;;19.94;72.72;101337.41;5016738;28;1049;-70
2021/07/15 09:59:25;;;;;;;;;;;;;;;19.94;72.59;101336.56;5017254;28;1037;-70
2021/07/15 10:01:50;;;;;;;;;;;;;;;19.95;72.42;101328.31;5016682;28;954;-70
2021/07/15 10:04:15;;;;;;;;;;;;;;;20.00;71.78;101333.28;5016737;28;835;-70
2021/07/15 10:06:40;;;;;;;;;;;;;;;20.00;72.04;101327.88;5017032;28;914;-70
2021/07/15 10:09:06;;;;;;;;;;;;;;;20.01;72.34;101329.56;5016631;28;1965;-70
2021/07/15 10:11:33;;;;;;;;;;;;;;;19.94;72.72;101333.88;5016843;28;815;-70
2021/07/15 10:13:58;;;;;;;;;;;;;;;19.92;72.64;101330.44;5016867;28;791;-70
2021/07/15 10:16:23;;;;;;;;;;;;;;;19.93;72.10;101327.59;5031674;28;1697;-70
2021/07/15 10:18:50;;;;;;;;;;;;;;;19.97;72.76;101337.13;5016304;28;812;-70
2021/07/15 10:21:15;;;;;;;;;;;;;;;19.97;72.89;101341.69;5031786;28;1606;-70
2021/07/15 10:23:40;;;;;;;;;;;;;;;19.99;72.49;101334.28;5015641;28;1677;-70
2021/07/15 10:26:05;;;;;;;;;;;;;;;20.02;72.89;101339.41;5015745;28;1296;-69
2021/07/15 10:28:30;;;;;;;;;;;;;;;20.03;73.04;101344.66;5015920;28;1316;-70
2021/07/15 10:30:55;;;;;;;;;;;;;;;19.97;72.42;101347.94;5016007;28;1955;-70
2021/07/15 10:33:20;;;;;;;;;;;;;;;20.03;73.22;101351.94;5015668;28;1430;-70
2021/07/15 10:35:45;;;;;;;;;;;;;;;20.04;73.22;101353.63;5047977;28;891;-70
2021/07/15 10:38:10;;;;;;;;;;;;;;;19.97;73.59;101353.38;5016376;28;1006;-70
2021/07/15 10:40:36;;;;;;;;;;;;;;;19.97;73.90;101352.50;5015527;28;1658;-70
2021/07/15 10:43:01;;;;;;;;;;;;;;;19.97;73.42;101347.94;5047522;28;1351;-70
2021/07/15 10:45:26;;;;;;;;;;;;;;;20.03;73.41;101344.66;5015342;28;1367;-70
2021/07/15 10:47:55;;;;;;;;;;;;;;;20.09;72.88;101352.16;5015241;28;1291;-70
2021/07/15 10:50:20;;;;;;;;;;;;;;;20.04;73.90;101353.63;5015182;28;2021;-70
2021/07/15 10:52:45;;;;;;;;;;;;;;;20.10;73.57;101358.44;5015329;28;1483;-70
2021/07/15 10:55:10;;;;;;;;;;;;;;;20.01;72.65;101354.78;5014844;28;1360;-70
2021/07/15 10:57:35;;;;;;;;;;;;;;;20.01;73.68;101359.34;5014337;28;1488;-70
2021/07/15 11:00:00;;;;;;;;;;;;;;;19.98;73.40;101359.63;5015326;28;1335;-70
2021/07/15 11:02:25;;;;;;;;;;;;;;;20.00;73.35;101363.03;5015114;28;1324;-70
2021/07/15 11:04:50;;;;;;;;;;;;;;;19.94;73.45;101363.63;5015302;28;1418;-70
2021/07/15 11:07:15;;;;;;;;;;;;;;;19.99;73.30;101364.03;5014725;28;1399;-70
2021/07/15 11:09:40;;;;;;;;;;;;;;;20.05;72.84;101374.28;5015217;28;1975;-70
2021/07/15 11:12:06;;;;;;;;;;;;;;;20.00;72.68;101374.72;5015221;28;1622;-70
2021/07/15 11:14:31;;;;;;;;;;;;;;;20.01;72.66;101368.31;5014675;28;1582;-70
2021/07/15 11:16:56;;;;;;;;;;;;;;;20.07;73.13;101380.38;5014928;28;803;-71
2021/07/15 11:19:21;;;;;;;;;;;;;;;19.98;73.13;101379.41;5030171;28;1426;-70
2021/07/15 11:21:46;;;;;;;;;;;;;;;19.97;72.35;101375.00;5016716;28;1348;-69
2021/07/15 11:24:11;;;;;;;;;;;;;;;20.00;72.64;101376.56;5015130;28;1410;-69
2021/07/15 11:26:41;;;;;;;;;;;;;;;19.91;72.89;101383.69;5033153;28;1373;-69
2021/07/15 11:29:06;;;;;;;;;;;;;;;19.91;73.37;101391.81;5015414;28;1914;-69
2021/07/15 11:31:31;;;;;;;;;;;;;;;19.94;73.15;101383.41;5047156;28;1256;-70
2021/07/15 11:33:56;;;;;;;;;;;;;;;19.99;72.98;101391.09;5016160;28;1350;-69
2021/07/15 11:36:21;;;;;;;;;;;;;;;20.00;73.01;101395.50;5014691;28;1414;-69
2021/07/15 11:38:47;;;;;;;;;;;;;;;19.95;73.55;101395.09;5016545;28;1391;-70
2021/07/15 11:41:12;;;;;;;;;;;;;;;19.95;72.61;101386.97;5014028;28;1063;-70
2021/07/15 11:43:38;;;;;;;;;;;;;;;19.97;72.43;101395.78;5048982;28;1615;-70
2021/07/15 11:46:03;;;;;;;;;;;;;;;19.96;72.59;101385.97;5018012;28;1188;-70
2021/07/15 11:48:29;;;;;;;;;;;;;;;19.97;72.59;101391.25;5054076;28;1315;-71
2021/07/15 11:50:54;;;;;;;;;;;;;;;20.00;72.85;101398.22;5016664;28;1977;-71
2021/07/15 11:53:19;;;;;;;;;;;;;;;19.90;72.82;101400.94;5023628;28;1398;-71
2021/07/15 11:55:44;;;;;;;;;;;;;;;19.77;72.92;101400.41;5015667;28;1287;-70
2021/07/15 11:58:09;;;;;;;;;;;;;;;19.84;72.43;101396.13;5015894;28;1236;-72
2021/07/15 12:00:34;;;;;;;;;;;;;;;19.92;72.35;101393.53;5016361;28;1319;-70
2021/07/15 12:02:59;;;;;;;;;;;;;;;19.90;72.27;101402.78;5019073;28;1639;-70
2021/07/15 12:05:32;;;;;;;;;;;;;;;19.94;72.98;101396.09;5020575;28;1244;-71
2021/07/15 12:07:57;;;;;;;;;;;;;;;19.92;72.29;101401.63;5018500;28;1137;-71
2021/07/15 12:10:23;;;;;;;;;;;;;;;19.90;73.18;101394.66;5052100;28;1918;-71
2021/07/15 12:12:48;;;;;;;;;;;;;;;19.92;72.21;101392.66;5020325;28;1331;-71
2021/07/15 12:15:20;;;;;;;;;;;;;;;19.91;72.45;101402.63;5019447;28;1240;-70
2021/07/15 12:17:45;;;;;;;;;;;;;;;19.87;72.51;101412.06;5019408;28;1185;-70
2021/07/15 12:20:10;;;;;;;;;;;;;;;19.84;72.19;101406.94;5020732;28;1386;-69
2021/07/15 12:22:35;;;;;;;;;;;;;;;19.89;72.90;101410.03;5024627;28;1347;-69
2021/07/15 12:25:00;;;;;;;;;;;;;;;19.86;72.29;101407.66;5029171;28;1347;-69
2021/07/15 12:27:25;;;;;;;;;;;;;;;19.87;72.24;101414.78;5031707;28;1170;-69
2021/07/15 12:29:50;;;;;;;;;;;;;;;19.90;71.69;101413.59;5021554;28;1902;-70
2021/07/15 12:32:15;;;;;;;;;;;;;;;19.90;72.29;101410.91;5018395;28;1235;-69
2021/07/15 12:34:40;;;;;;;;;;;;;;;19.90;72.34;101417.16;5018113;28;1354;-69
2021/07/15 12:37:06;;;;;;;;;;;;;;;19.96;72.40;101418.44;5018415;28;1625;-69
2021/07/15 12:39:31;;;;;;;;;;;;;;;19.94;72.79;101417.72;5018697;28;1726;-69
2021/07/15 12:41:56;;;;;;;;;;;;;;;19.92;72.82;101417.88;5018804;28;1578;-69